sensor_id;sensor_type;location;lat;lon;timestamp;P1;durP1;ratioP1;P2;durP2;ratioP2
47365;SDS011;33105;47.964;7.982;2023-07-16T00:00:35;3.25;;;2.42;;
47365;SDS011;33105;47.964;7.982;2023-07-16T00:03:38;5.85;;;2.63;;
47365;SDS011;33105;47.964;7.982;2023-07-16T00:06:39;5.20;;;2.05;;
47365;SDS011;33105;47.964;7.982;2023-07-16T00:09:40;4.45;;;2.20;;
47365;SDS011;33105;47.964;7.982;2023-07-16T00:12:42;4.30;;;2.30;;
47365;SDS011;33105;47.964;7.982;2023-07-16T00:15:43;3.97;;;2.17;;
47365;SDS011;33105;47.964;7.982;2023-07-16T00:18:44;3.05;;;1.90;;
47365;SDS011;33105;47.964;7.982;2023-07-16T00:21:46;5.70;;;2.65;;
47365;SDS011;33105;47.964;7.982;2023-07-16T00:24:47;8.68;;;2.00;;
47365;SDS011;33105;47.964;7.982;2023-07-16T00:27:49;7.30;;;2.00;;
47365;SDS011;33105;47.964;7.982;2023-07-16T00:30:50;3.60;;;1.73;;
47365;SDS011;33105;47.964;7.982;2023-07-16T00:33:52;1.63;;;1.52;;
47365;SDS011;33105;47.964;7.982;2023-07-16T00:36:53;4.88;;;2.08;;
47365;SDS011;33105;47.964;7.982;2023-07-16T00:39:54;3.17;;;1.67;;
47365;SDS011;33105;47.964;7.982;2023-07-16T00:43:01;1.75;;;1.58;;
47365;SDS011;33105;47.964;7.982;2023-07-16T00:46:02;3.20;;;1.58;;
47365;SDS011;33105;47.964;7.982;2023-07-16T00:49:04;5.93;;;1.75;;
47365;SDS011;33105;47.964;7.982;2023-07-16T00:52:09;3.72;;;1.90;;
47365;SDS011;33105;47.964;7.982;2023-07-16T00:55:18;5.03;;;1.63;;
47365;SDS011;33105;47.964;7.982;2023-07-16T00:58:47;1.40;;;1.30;;
47365;SDS011;33105;47.964;7.982;2023-07-16T01:02:33;1.45;;;1.30;;
47365;SDS011;33105;47.964;7.982;2023-07-16T01:13:32;3.88;;;1.40;;
47365;SDS011;33105;47.964;7.982;2023-07-16T01:16:56;9.23;;;1.65;;
47365;SDS011;33105;47.964;7.982;2023-07-16T01:20:00;2.03;;;1.60;;
47365;SDS011;33105;47.964;7.982;2023-07-16T01:23:14;6.65;;;1.45;;
47365;SDS011;33105;47.964;7.982;2023-07-16T01:35:00;2.88;;;2.15;;
47365;SDS011;33105;47.964;7.982;2023-07-16T01:38:03;2.85;;;1.80;;
47365;SDS011;33105;47.964;7.982;2023-07-16T01:41:08;6.28;;;2.10;;
47365;SDS011;33105;47.964;7.982;2023-07-16T01:44:12;2.83;;;1.80;;
47365;SDS011;33105;47.964;7.982;2023-07-16T01:50:44;5.57;;;2.10;;
47365;SDS011;33105;47.964;7.982;2023-07-16T01:53:55;6.07;;;1.73;;
47365;SDS011;33105;47.964;7.982;2023-07-16T01:56:59;6.50;;;2.28;;
47365;SDS011;33105;47.964;7.982;2023-07-16T02:00:00;4.95;;;2.05;;
47365;SDS011;33105;47.964;7.982;2023-07-16T02:03:02;6.53;;;1.98;;
47365;SDS011;33105;47.964;7.982;2023-07-16T02:06:16;9.68;;;1.70;;
47365;SDS011;33105;47.964;7.982;2023-07-16T02:09:23;4.95;;;1.90;;
47365;SDS011;33105;47.964;7.982;2023-07-16T02:12:26;2.35;;;1.67;;
47365;SDS011;33105;47.964;7.982;2023-07-16T02:19:44;6.13;;;2.03;;
47365;SDS011;33105;47.964;7.982;2023-07-16T02:22:55;4.90;;;1.75;;
47365;SDS011;33105;47.964;7.982;2023-07-16T02:26:36;3.25;;;1.52;;
47365;SDS011;33105;47.964;7.982;2023-07-16T02:29:39;5.88;;;1.75;;
47365;SDS011;33105;47.964;7.982;2023-07-16T02:32:41;6.57;;;2.35;;
47365;SDS011;33105;47.964;7.982;2023-07-16T02:35:47;8.65;;;2.13;;
47365;SDS011;33105;47.964;7.982;2023-07-16T02:38:52;4.57;;;2.00;;
47365;SDS011;33105;47.964;7.982;2023-07-16T02:42:00;6.03;;;1.98;;
47365;SDS011;33105;47.964;7.982;2023-07-16T02:45:04;10.18;;;2.53;;
47365;SDS011;33105;47.964;7.982;2023-07-16T02:49:08;5.75;;;2.22;;
47365;SDS011;33105;47.964;7.982;2023-07-16T03:00:26;5.35;;;2.15;;
47365;SDS011;33105;47.964;7.982;2023-07-16T03:03:54;10.60;;;2.40;;
47365;SDS011;33105;47.964;7.982;2023-07-16T03:11:27;8.40;;;2.00;;
47365;SDS011;33105;47.964;7.982;2023-07-16T03:14:49;8.80;;;2.28;;
47365;SDS011;33105;47.964;7.982;2023-07-16T03:18:34;11.65;;;2.47;;
47365;SDS011;33105;47.964;7.982;2023-07-16T03:21:48;6.53;;;1.92;;
47365;SDS011;33105;47.964;7.982;2023-07-16T03:25:23;5.28;;;1.90;;
47365;SDS011;33105;47.964;7.982;2023-07-16T03:29:28;6.38;;;2.42;;
47365;SDS011;33105;47.964;7.982;2023-07-16T03:32:39;6.05;;;2.33;;
47365;SDS011;33105;47.964;7.982;2023-07-16T03:35:59;5.25;;;2.17;;
47365;SDS011;33105;47.964;7.982;2023-07-16T03:39:01;9.35;;;2.25;;
47365;SDS011;33105;47.964;7.982;2023-07-16T03:42:22;6.85;;;1.95;;
47365;SDS011;33105;47.964;7.982;2023-07-16T03:45:48;8.60;;;2.42;;
47365;SDS011;33105;47.964;7.982;2023-07-16T03:48:51;9.70;;;2.30;;
47365;SDS011;33105;47.964;7.982;2023-07-16T03:53:21;6.03;;;2.25;;
47365;SDS011;33105;47.964;7.982;2023-07-16T03:56:41;7.82;;;2.38;;
47365;SDS011;33105;47.964;7.982;2023-07-16T03:59:53;8.73;;;2.38;;
47365;SDS011;33105;47.964;7.982;2023-07-16T04:03:10;5.57;;;2.05;;
47365;SDS011;33105;47.964;7.982;2023-07-16T04:06:16;4.97;;;2.10;;
47365;SDS011;33105;47.964;7.982;2023-07-16T04:09:17;7.03;;;2.38;;
47365;SDS011;33105;47.964;7.982;2023-07-16T04:13:19;13.15;;;2.22;;
47365;SDS011;33105;47.964;7.982;2023-07-16T04:17:00;9.32;;;2.42;;
47365;SDS011;33105;47.964;7.982;2023-07-16T04:20:08;10.77;;;2.53;;
47365;SDS011;33105;47.964;7.982;2023-07-16T04:23:10;8.93;;;2.65;;
47365;SDS011;33105;47.964;7.982;2023-07-16T04:27:07;8.60;;;2.55;;
47365;SDS011;33105;47.964;7.982;2023-07-16T04:30:38;6.70;;;2.72;;
47365;SDS011;33105;47.964;7.982;2023-07-16T04:33:49;8.75;;;2.67;;
47365;SDS011;33105;47.964;7.982;2023-07-16T04:36:58;9.15;;;2.67;;
47365;SDS011;33105;47.964;7.982;2023-07-16T04:40:00;6.03;;;2.33;;
47365;SDS011;33105;47.964;7.982;2023-07-16T04:43:18;8.40;;;2.60;;
47365;SDS011;33105;47.964;7.982;2023-07-16T04:46:46;6.30;;;2.35;;
47365;SDS011;33105;47.964;7.982;2023-07-16T04:50:12;6.75;;;2.08;;
47365;SDS011;33105;47.964;7.982;2023-07-16T04:53:20;11.10;;;2.22;;
47365;SDS011;33105;47.964;7.982;2023-07-16T04:57:34;11.15;;;2.80;;
47365;SDS011;33105;47.964;7.982;2023-07-16T05:04:35;11.80;;;2.75;;
47365;SDS011;33105;47.964;7.982;2023-07-16T05:17:54;4.75;;;2.55;;
47365;SDS011;33105;47.964;7.982;2023-07-16T05:26:26;4.93;;;2.60;;
47365;SDS011;33105;47.964;7.982;2023-07-16T05:29:30;9.90;;;3.05;;
47365;SDS011;33105;47.964;7.982;2023-07-16T05:32:37;7.63;;;3.40;;
47365;SDS011;33105;47.964;7.982;2023-07-16T05:36:27;8.77;;;3.40;;
47365;SDS011;33105;47.964;7.982;2023-07-16T05:40:02;10.35;;;3.17;;
47365;SDS011;33105;47.964;7.982;2023-07-16T05:44:09;6.88;;;2.95;;
47365;SDS011;33105;47.964;7.982;2023-07-16T05:47:11;11.30;;;2.90;;
47365;SDS011;33105;47.964;7.982;2023-07-16T05:50:16;6.50;;;2.72;;
47365;SDS011;33105;47.964;7.982;2023-07-16T05:53:17;9.38;;;2.70;;
47365;SDS011;33105;47.964;7.982;2023-07-16T05:56:19;10.18;;;3.00;;
47365;SDS011;33105;47.964;7.982;2023-07-16T05:59:26;8.13;;;3.00;;
47365;SDS011;33105;47.964;7.982;2023-07-16T06:02:46;5.75;;;2.65;;
47365;SDS011;33105;47.964;7.982;2023-07-16T06:07:16;8.85;;;2.70;;
47365;SDS011;33105;47.964;7.982;2023-07-16T06:15:29;10.52;;;2.78;;
47365;SDS011;33105;47.964;7.982;2023-07-16T06:18:55;8.00;;;2.80;;
47365;SDS011;33105;47.964;7.982;2023-07-16T06:21:59;7.95;;;2.33;;
47365;SDS011;33105;47.964;7.982;2023-07-16T06:25:11;8.57;;;2.40;;
47365;SDS011;33105;47.964;7.982;2023-07-16T06:28:16;5.82;;;2.50;;
47365;SDS011;33105;47.964;7.982;2023-07-16T06:35:09;6.22;;;2.60;;
47365;SDS011;33105;47.964;7.982;2023-07-16T06:38:26;11.00;;;2.65;;
47365;SDS011;33105;47.964;7.982;2023-07-16T06:41:36;6.45;;;1.92;;
47365;SDS011;33105;47.964;7.982;2023-07-16T06:44:37;8.77;;;2.25;;
47365;SDS011;33105;47.964;7.982;2023-07-16T06:47:45;7.32;;;2.17;;
47365;SDS011;33105;47.964;7.982;2023-07-16T06:51:15;7.22;;;2.15;;
47365;SDS011;33105;47.964;7.982;2023-07-16T06:54:28;6.40;;;2.10;;
47365;SDS011;33105;47.964;7.982;2023-07-16T06:57:30;9.85;;;1.88;;
47365;SDS011;33105;47.964;7.982;2023-07-16T07:00:31;8.32;;;2.05;;
47365;SDS011;33105;47.964;7.982;2023-07-16T07:03:43;6.25;;;2.00;;
47365;SDS011;33105;47.964;7.982;2023-07-16T07:07:46;12.25;;;2.30;;
47365;SDS011;33105;47.964;7.982;2023-07-16T07:10:41;13.88;;;2.28;;
47365;SDS011;33105;47.964;7.982;2023-07-16T07:17:40;7.95;;;1.63;;
47365;SDS011;33105;47.964;7.982;2023-07-16T07:20:58;10.45;;;2.03;;
47365;SDS011;33105;47.964;7.982;2023-07-16T07:24:04;7.75;;;2.10;;
47365;SDS011;33105;47.964;7.982;2023-07-16T07:27:06;13.77;;;2.75;;
47365;SDS011;33105;47.964;7.982;2023-07-16T07:33:32;6.70;;;1.67;;
47365;SDS011;33105;47.964;7.982;2023-07-16T07:36:36;6.03;;;1.90;;
47365;SDS011;33105;47.964;7.982;2023-07-16T07:39:43;7.13;;;2.10;;
47365;SDS011;33105;47.964;7.982;2023-07-16T07:47:07;6.93;;;2.00;;
47365;SDS011;33105;47.964;7.982;2023-07-16T07:51:09;7.60;;;2.15;;
47365;SDS011;33105;47.964;7.982;2023-07-16T07:54:11;9.27;;;2.38;;
47365;SDS011;33105;47.964;7.982;2023-07-16T07:57:22;10.98;;;2.40;;
47365;SDS011;33105;47.964;7.982;2023-07-16T08:00:23;9.32;;;1.90;;
47365;SDS011;33105;47.964;7.982;2023-07-16T08:03:25;8.95;;;2.58;;
47365;SDS011;33105;47.964;7.982;2023-07-16T08:06:32;12.70;;;1.88;;
47365;SDS011;33105;47.964;7.982;2023-07-16T08:09:37;8.00;;;1.85;;
47365;SDS011;33105;47.964;7.982;2023-07-16T08:12:42;10.05;;;2.00;;
47365;SDS011;33105;47.964;7.982;2023-07-16T08:25:18;10.75;;;1.70;;
47365;SDS011;33105;47.964;7.982;2023-07-16T08:28:30;8.40;;;1.85;;
47365;SDS011;33105;47.964;7.982;2023-07-16T08:31:34;10.93;;;2.10;;
47365;SDS011;33105;47.964;7.982;2023-07-16T08:35:05;6.97;;;1.43;;
47365;SDS011;33105;47.964;7.982;2023-07-16T08:38:08;8.45;;;1.80;;
47365;SDS011;33105;47.964;7.982;2023-07-16T08:45:50;12.32;;;2.10;;
47365;SDS011;33105;47.964;7.982;2023-07-16T08:49:18;9.02;;;2.00;;
47365;SDS011;33105;47.964;7.982;2023-07-16T08:52:56;9.80;;;2.20;;
47365;SDS011;33105;47.964;7.982;2023-07-16T08:56:14;6.30;;;1.77;;
47365;SDS011;33105;47.964;7.982;2023-07-16T08:59:37;12.60;;;1.83;;
47365;SDS011;33105;47.964;7.982;2023-07-16T09:08:46;7.13;;;1.77;;
47365;SDS011;33105;47.964;7.982;2023-07-16T09:11:58;11.13;;;2.10;;
47365;SDS011;33105;47.964;7.982;2023-07-16T09:15:03;8.82;;;2.28;;
47365;SDS011;33105;47.964;7.982;2023-07-16T09:18:29;7.40;;;2.08;;
47365;SDS011;33105;47.964;7.982;2023-07-16T09:21:30;6.13;;;1.52;;
47365;SDS011;33105;47.964;7.982;2023-07-16T09:29:40;4.13;;;1.67;;
47365;SDS011;33105;47.964;7.982;2023-07-16T09:32:48;9.77;;;1.92;;
47365;SDS011;33105;47.964;7.982;2023-07-16T09:36:32;10.77;;;2.30;;
47365;SDS011;33105;47.964;7.982;2023-07-16T09:58:31;8.23;;;1.85;;
47365;SDS011;33105;47.964;7.982;2023-07-16T10:02:05;10.43;;;1.90;;
47365;SDS011;33105;47.964;7.982;2023-07-16T10:05:41;8.93;;;1.95;;
47365;SDS011;33105;47.964;7.982;2023-07-16T10:08:48;9.40;;;2.08;;
47365;SDS011;33105;47.964;7.982;2023-07-16T10:12:26;9.23;;;2.30;;
47365;SDS011;33105;47.964;7.982;2023-07-16T10:16:00;7.80;;;1.60;;
47365;SDS011;33105;47.964;7.982;2023-07-16T10:22:46;6.20;;;2.22;;
47365;SDS011;33105;47.964;7.982;2023-07-16T10:26:00;9.63;;;2.05;;
47365;SDS011;33105;47.964;7.982;2023-07-16T10:29:40;5.97;;;1.75;;
47365;SDS011;33105;47.964;7.982;2023-07-16T10:33:15;7.03;;;1.77;;
47365;SDS011;33105;47.964;7.982;2023-07-16T10:36:20;8.27;;;2.17;;
47365;SDS011;33105;47.964;7.982;2023-07-16T10:39:32;7.43;;;1.60;;
47365;SDS011;33105;47.964;7.982;2023-07-16T10:42:36;6.60;;;2.15;;
47365;SDS011;33105;47.964;7.982;2023-07-16T10:45:44;9.45;;;2.55;;
47365;SDS011;33105;47.964;7.982;2023-07-16T10:48:47;7.65;;;2.08;;
47365;SDS011;33105;47.964;7.982;2023-07-16T10:51:49;9.68;;;1.90;;
47365;SDS011;33105;47.964;7.982;2023-07-16T10:54:51;6.07;;;1.77;;
47365;SDS011;33105;47.964;7.982;2023-07-16T10:57:55;6.13;;;2.22;;
47365;SDS011;33105;47.964;7.982;2023-07-16T11:00:57;12.63;;;2.40;;
47365;SDS011;33105;47.964;7.982;2023-07-16T11:04:01;6.82;;;1.98;;
47365;SDS011;33105;47.964;7.982;2023-07-16T11:07:09;6.38;;;2.33;;
47365;SDS011;33105;47.964;7.982;2023-07-16T11:10:15;6.38;;;1.90;;
47365;SDS011;33105;47.964;7.982;2023-07-16T11:13:17;6.63;;;1.50;;
47365;SDS011;33105;47.964;7.982;2023-07-16T11:16:18;5.60;;;1.65;;
47365;SDS011;33105;47.964;7.982;2023-07-16T11:19:20;5.72;;;1.38;;
47365;SDS011;33105;47.964;7.982;2023-07-16T11:22:25;7.82;;;1.83;;
47365;SDS011;33105;47.964;7.982;2023-07-16T11:25:30;7.07;;;1.75;;
47365;SDS011;33105;47.964;7.982;2023-07-16T11:28:40;4.95;;;1.60;;
47365;SDS011;33105;47.964;7.982;2023-07-16T11:31:42;7.30;;;2.00;;
47365;SDS011;33105;47.964;7.982;2023-07-16T11:34:53;5.80;;;1.70;;
47365;SDS011;33105;47.964;7.982;2023-07-16T11:37:55;6.63;;;2.00;;
47365;SDS011;33105;47.964;7.982;2023-07-16T11:40:59;6.70;;;1.80;;
47365;SDS011;33105;47.964;7.982;2023-07-16T11:44:01;7.38;;;1.67;;
47365;SDS011;33105;47.964;7.982;2023-07-16T11:47:03;5.65;;;1.80;;
47365;SDS011;33105;47.964;7.982;2023-07-16T11:50:05;5.55;;;1.60;;
47365;SDS011;33105;47.964;7.982;2023-07-16T11:53:06;5.90;;;1.88;;
47365;SDS011;33105;47.964;7.982;2023-07-16T11:56:07;4.57;;;1.63;;
47365;SDS011;33105;47.964;7.982;2023-07-16T11:59:10;7.03;;;1.65;;
47365;SDS011;33105;47.964;7.982;2023-07-16T12:02:11;8.93;;;1.70;;
47365;SDS011;33105;47.964;7.982;2023-07-16T12:05:12;4.07;;;1.73;;
47365;SDS011;33105;47.964;7.982;2023-07-16T12:08:13;4.32;;;1.73;;
47365;SDS011;33105;47.964;7.982;2023-07-16T12:11:15;10.45;;;2.05;;
47365;SDS011;33105;47.964;7.982;2023-07-16T12:14:16;10.15;;;2.08;;
47365;SDS011;33105;47.964;7.982;2023-07-16T12:17:17;7.65;;;1.80;;
47365;SDS011;33105;47.964;7.982;2023-07-16T12:20:19;4.43;;;1.73;;
47365;SDS011;33105;47.964;7.982;2023-07-16T12:23:20;4.78;;;1.52;;
47365;SDS011;33105;47.964;7.982;2023-07-16T12:26:21;6.60;;;1.80;;
47365;SDS011;33105;47.964;7.982;2023-07-16T12:29:22;7.22;;;2.00;;
47365;SDS011;33105;47.964;7.982;2023-07-16T12:32:25;4.82;;;1.90;;
47365;SDS011;33105;47.964;7.982;2023-07-16T12:35:26;6.03;;;1.75;;
47365;SDS011;33105;47.964;7.982;2023-07-16T12:38:27;7.03;;;1.88;;
47365;SDS011;33105;47.964;7.982;2023-07-16T12:41:28;5.15;;;1.88;;
47365;SDS011;33105;47.964;7.982;2023-07-16T12:44:29;6.88;;;2.17;;
47365;SDS011;33105;47.964;7.982;2023-07-16T12:47:31;6.75;;;1.65;;
47365;SDS011;33105;47.964;7.982;2023-07-16T12:50:32;5.53;;;1.92;;
47365;SDS011;33105;47.964;7.982;2023-07-16T12:53:34;5.07;;;1.80;;
47365;SDS011;33105;47.964;7.982;2023-07-16T12:56:35;6.40;;;1.88;;
47365;SDS011;33105;47.964;7.982;2023-07-16T12:59:36;6.43;;;1.77;;
47365;SDS011;33105;47.964;7.982;2023-07-16T13:02:38;5.68;;;1.80;;
47365;SDS011;33105;47.964;7.982;2023-07-16T13:05:40;4.60;;;1.50;;
47365;SDS011;33105;47.964;7.982;2023-07-16T13:08:41;9.32;;;1.80;;
47365;SDS011;33105;47.964;7.982;2023-07-16T13:11:43;7.13;;;2.17;;
47365;SDS011;33105;47.964;7.982;2023-07-16T13:14:44;5.10;;;1.67;;
47365;SDS011;33105;47.964;7.982;2023-07-16T13:17:45;5.03;;;1.63;;
47365;SDS011;33105;47.964;7.982;2023-07-16T13:20:49;5.93;;;1.70;;
47365;SDS011;33105;47.964;7.982;2023-07-16T13:23:50;3.38;;;1.58;;
47365;SDS011;33105;47.964;7.982;2023-07-16T13:26:51;3.97;;;1.80;;
47365;SDS011;33105;47.964;7.982;2023-07-16T13:29:53;4.13;;;1.50;;
47365;SDS011;33105;47.964;7.982;2023-07-16T13:32:55;5.18;;;1.80;;
47365;SDS011;33105;47.964;7.982;2023-07-16T13:35:57;3.63;;;1.63;;
47365;SDS011;33105;47.964;7.982;2023-07-16T13:39:00;6.22;;;1.92;;
47365;SDS011;33105;47.964;7.982;2023-07-16T13:42:02;4.30;;;1.40;;
47365;SDS011;33105;47.964;7.982;2023-07-16T13:45:05;4.78;;;1.48;;
47365;SDS011;33105;47.964;7.982;2023-07-16T13:48:07;9.27;;;2.30;;
47365;SDS011;33105;47.964;7.982;2023-07-16T13:51:10;3.83;;;2.10;;
47365;SDS011;33105;47.964;7.982;2023-07-16T13:54:26;4.78;;;1.67;;
47365;SDS011;33105;47.964;7.982;2023-07-16T13:57:37;4.20;;;1.80;;
47365;SDS011;33105;47.964;7.982;2023-07-16T14:00:42;7.35;;;1.60;;
47365;SDS011;33105;47.964;7.982;2023-07-16T14:04:12;6.78;;;1.77;;
47365;SDS011;33105;47.964;7.982;2023-07-16T14:07:17;5.45;;;1.92;;
47365;SDS011;33105;47.964;7.982;2023-07-16T14:10:18;5.80;;;2.17;;
47365;SDS011;33105;47.964;7.982;2023-07-16T14:13:29;6.22;;;1.80;;
47365;SDS011;33105;47.964;7.982;2023-07-16T14:16:39;3.20;;;1.60;;
47365;SDS011;33105;47.964;7.982;2023-07-16T14:19:44;6.80;;;1.85;;
47365;SDS011;33105;47.964;7.982;2023-07-16T14:22:47;8.38;;;2.13;;
47365;SDS011;33105;47.964;7.982;2023-07-16T14:25:51;5.80;;;1.63;;
47365;SDS011;33105;47.964;7.982;2023-07-16T14:29:00;6.13;;;2.10;;
47365;SDS011;33105;47.964;7.982;2023-07-16T14:32:09;5.50;;;1.33;;
47365;SDS011;33105;47.964;7.982;2023-07-16T14:35:11;6.10;;;2.00;;
47365;SDS011;33105;47.964;7.982;2023-07-16T14:38:13;5.53;;;1.73;;
47365;SDS011;33105;47.964;7.982;2023-07-16T14:41:27;5.80;;;1.58;;
47365;SDS011;33105;47.964;7.982;2023-07-16T14:44:29;5.28;;;1.48;;
47365;SDS011;33105;47.964;7.982;2023-07-16T14:47:30;5.00;;;1.88;;
47365;SDS011;33105;47.964;7.982;2023-07-16T14:50:32;3.92;;;1.70;;
47365;SDS011;33105;47.964;7.982;2023-07-16T14:53:33;5.53;;;1.80;;
47365;SDS011;33105;47.964;7.982;2023-07-16T14:56:35;6.38;;;1.60;;
47365;SDS011;33105;47.964;7.982;2023-07-16T14:59:39;4.70;;;1.80;;
47365;SDS011;33105;47.964;7.982;2023-07-16T15:03:26;4.78;;;2.03;;
47365;SDS011;33105;47.964;7.982;2023-07-16T15:06:27;5.25;;;1.88;;
47365;SDS011;33105;47.964;7.982;2023-07-16T15:10:02;4.75;;;1.60;;
47365;SDS011;33105;47.964;7.982;2023-07-16T15:13:21;6.75;;;1.80;;
47365;SDS011;33105;47.964;7.982;2023-07-16T15:16:34;2.67;;;1.38;;
47365;SDS011;33105;47.964;7.982;2023-07-16T15:19:53;3.83;;;1.52;;
47365;SDS011;33105;47.964;7.982;2023-07-16T15:22:54;5.32;;;1.80;;
47365;SDS011;33105;47.964;7.982;2023-07-16T15:26:06;4.63;;;1.85;;
47365;SDS011;33105;47.964;7.982;2023-07-16T15:29:26;4.45;;;1.90;;
47365;SDS011;33105;47.964;7.982;2023-07-16T15:32:35;8.98;;;1.60;;
47365;SDS011;33105;47.964;7.982;2023-07-16T15:36:18;5.32;;;1.88;;
47365;SDS011;33105;47.964;7.982;2023-07-16T15:39:53;4.05;;;1.98;;
47365;SDS011;33105;47.964;7.982;2023-07-16T15:43:24;4.28;;;1.83;;
47365;SDS011;33105;47.964;7.982;2023-07-16T15:46:55;6.72;;;1.60;;
47365;SDS011;33105;47.964;7.982;2023-07-16T15:50:11;2.37;;;1.30;;
47365;SDS011;33105;47.964;7.982;2023-07-16T15:53:41;8.20;;;2.05;;
47365;SDS011;33105;47.964;7.982;2023-07-16T16:00:58;5.80;;;1.92;;
47365;SDS011;33105;47.964;7.982;2023-07-16T16:09:36;6.32;;;1.70;;
47365;SDS011;33105;47.964;7.982;2023-07-16T16:13:35;8.23;;;2.08;;
47365;SDS011;33105;47.964;7.982;2023-07-16T16:17:14;8.55;;;1.75;;
47365;SDS011;33105;47.964;7.982;2023-07-16T16:20:23;2.33;;;1.45;;
47365;SDS011;33105;47.964;7.982;2023-07-16T16:23:51;3.35;;;1.60;;
47365;SDS011;33105;47.964;7.982;2023-07-16T16:28:10;5.35;;;1.98;;
47365;SDS011;33105;47.964;7.982;2023-07-16T16:34:54;5.85;;;2.17;;
47365;SDS011;33105;47.964;7.982;2023-07-16T16:38:26;5.07;;;2.10;;
47365;SDS011;33105;47.964;7.982;2023-07-16T16:42:02;4.05;;;1.95;;
47365;SDS011;33105;47.964;7.982;2023-07-16T16:45:35;4.57;;;1.55;;
47365;SDS011;33105;47.964;7.982;2023-07-16T16:48:52;3.67;;;1.73;;
47365;SDS011;33105;47.964;7.982;2023-07-16T16:52:23;2.60;;;1.80;;
47365;SDS011;33105;47.964;7.982;2023-07-16T16:56:06;4.93;;;2.20;;
47365;SDS011;33105;47.964;7.982;2023-07-16T16:59:28;4.50;;;2.03;;
47365;SDS011;33105;47.964;7.982;2023-07-16T17:06:43;3.38;;;1.50;;
47365;SDS011;33105;47.964;7.982;2023-07-16T17:09:54;2.78;;;1.60;;
47365;SDS011;33105;47.964;7.982;2023-07-16T17:12:56;6.95;;;1.95;;
47365;SDS011;33105;47.964;7.982;2023-07-16T17:16:47;7.82;;;1.63;;
47365;SDS011;33105;47.964;7.982;2023-07-16T17:19:49;2.88;;;1.73;;
47365;SDS011;33105;47.964;7.982;2023-07-16T17:22:55;3.90;;;1.73;;
47365;SDS011;33105;47.964;7.982;2023-07-16T17:25:56;3.70;;;1.70;;
47365;SDS011;33105;47.964;7.982;2023-07-16T17:28:58;6.13;;;1.90;;
47365;SDS011;33105;47.964;7.982;2023-07-16T17:32:02;4.55;;;1.80;;
47365;SDS011;33105;47.964;7.982;2023-07-16T17:35:04;3.85;;;1.92;;
47365;SDS011;33105;47.964;7.982;2023-07-16T17:38:10;5.25;;;1.63;;
47365;SDS011;33105;47.964;7.982;2023-07-16T17:41:17;2.85;;;1.70;;
47365;SDS011;33105;47.964;7.982;2023-07-16T17:44:18;4.25;;;1.60;;
47365;SDS011;33105;47.964;7.982;2023-07-16T17:47:20;5.05;;;1.92;;
47365;SDS011;33105;47.964;7.982;2023-07-16T17:50:24;3.88;;;1.88;;
47365;SDS011;33105;47.964;7.982;2023-07-16T17:53:25;5.85;;;2.00;;
47365;SDS011;33105;47.964;7.982;2023-07-16T17:56:27;3.88;;;2.00;;
47365;SDS011;33105;47.964;7.982;2023-07-16T17:59:28;3.20;;;1.65;;
47365;SDS011;33105;47.964;7.982;2023-07-16T18:02:29;3.03;;;1.77;;
47365;SDS011;33105;47.964;7.982;2023-07-16T18:05:31;4.88;;;2.22;;
47365;SDS011;33105;47.964;7.982;2023-07-16T18:08:33;3.97;;;2.00;;
47365;SDS011;33105;47.964;7.982;2023-07-16T18:11:35;6.55;;;1.90;;
47365;SDS011;33105;47.964;7.982;2023-07-16T18:14:36;3.80;;;1.60;;
47365;SDS011;33105;47.964;7.982;2023-07-16T18:17:38;4.47;;;2.05;;
47365;SDS011;33105;47.964;7.982;2023-07-16T18:20:39;3.20;;;1.50;;
47365;SDS011;33105;47.964;7.982;2023-07-16T18:23:40;4.85;;;1.77;;
47365;SDS011;33105;47.964;7.982;2023-07-16T18:26:42;6.88;;;2.10;;
47365;SDS011;33105;47.964;7.982;2023-07-16T18:29:43;3.65;;;1.90;;
47365;SDS011;33105;47.964;7.982;2023-07-16T18:32:44;4.70;;;2.03;;
47365;SDS011;33105;47.964;7.982;2023-07-16T18:35:45;4.90;;;1.80;;
47365;SDS011;33105;47.964;7.982;2023-07-16T18:38:47;4.65;;;1.90;;
47365;SDS011;33105;47.964;7.982;2023-07-16T18:41:49;3.42;;;2.13;;
47365;SDS011;33105;47.964;7.982;2023-07-16T18:44:50;4.80;;;2.40;;
47365;SDS011;33105;47.964;7.982;2023-07-16T18:47:57;5.15;;;2.15;;
47365;SDS011;33105;47.964;7.982;2023-07-16T18:50:58;4.97;;;1.80;;
47365;SDS011;33105;47.964;7.982;2023-07-16T18:54:01;5.45;;;1.95;;
47365;SDS011;33105;47.964;7.982;2023-07-16T18:57:04;4.57;;;1.70;;
47365;SDS011;33105;47.964;7.982;2023-07-16T19:00:06;6.10;;;2.20;;
47365;SDS011;33105;47.964;7.982;2023-07-16T19:03:07;3.45;;;1.80;;
47365;SDS011;33105;47.964;7.982;2023-07-16T19:06:09;3.90;;;2.10;;
47365;SDS011;33105;47.964;7.982;2023-07-16T19:09:11;4.40;;;1.70;;
47365;SDS011;33105;47.964;7.982;2023-07-16T19:12:12;6.68;;;2.08;;
47365;SDS011;33105;47.964;7.982;2023-07-16T19:15:13;6.15;;;1.90;;
47365;SDS011;33105;47.964;7.982;2023-07-16T19:18:16;3.95;;;1.70;;
47365;SDS011;33105;47.964;7.982;2023-07-16T19:21:18;3.63;;;2.17;;
47365;SDS011;33105;47.964;7.982;2023-07-16T19:24:19;4.10;;;2.20;;
47365;SDS011;33105;47.964;7.982;2023-07-16T19:27:20;5.35;;;1.70;;
47365;SDS011;33105;47.964;7.982;2023-07-16T19:30:22;3.67;;;1.80;;
47365;SDS011;33105;47.964;7.982;2023-07-16T19:33:23;4.70;;;1.80;;
47365;SDS011;33105;47.964;7.982;2023-07-16T19:36:25;4.43;;;2.17;;
47365;SDS011;33105;47.964;7.982;2023-07-16T19:39:31;3.78;;;1.75;;
47365;SDS011;33105;47.964;7.982;2023-07-16T19:42:32;3.53;;;1.98;;
47365;SDS011;33105;47.964;7.982;2023-07-16T19:45:34;7.32;;;2.38;;
47365;SDS011;33105;47.964;7.982;2023-07-16T19:48:35;3.13;;;1.90;;
47365;SDS011;33105;47.964;7.982;2023-07-16T19:51:37;4.93;;;1.70;;
47365;SDS011;33105;47.964;7.982;2023-07-16T19:54:38;5.05;;;2.10;;
47365;SDS011;33105;47.964;7.982;2023-07-16T19:57:40;4.18;;;1.80;;
47365;SDS011;33105;47.964;7.982;2023-07-16T20:00:43;3.97;;;1.65;;
47365;SDS011;33105;47.964;7.982;2023-07-16T20:03:45;5.50;;;2.03;;
47365;SDS011;33105;47.964;7.982;2023-07-16T20:06:46;4.10;;;2.20;;
47365;SDS011;33105;47.964;7.982;2023-07-16T20:09:52;4.43;;;2.10;;
47365;SDS011;33105;47.964;7.982;2023-07-16T20:12:53;3.22;;;2.00;;
47365;SDS011;33105;47.964;7.982;2023-07-16T20:15:54;4.68;;;1.95;;
47365;SDS011;33105;47.964;7.982;2023-07-16T20:18:56;3.97;;;2.00;;
47365;SDS011;33105;47.964;7.982;2023-07-16T20:21:58;5.38;;;2.20;;
47365;SDS011;33105;47.964;7.982;2023-07-16T20:24:59;5.82;;;2.13;;
47365;SDS011;33105;47.964;7.982;2023-07-16T20:28:00;5.20;;;1.98;;
47365;SDS011;33105;47.964;7.982;2023-07-16T20:31:06;5.40;;;1.77;;
47365;SDS011;33105;47.964;7.982;2023-07-16T20:34:10;5.95;;;1.85;;
47365;SDS011;33105;47.964;7.982;2023-07-16T20:37:14;3.78;;;1.92;;
47365;SDS011;33105;47.964;7.982;2023-07-16T20:40:16;5.55;;;2.03;;
47365;SDS011;33105;47.964;7.982;2023-07-16T20:43:18;6.80;;;2.10;;
47365;SDS011;33105;47.964;7.982;2023-07-16T20:46:25;4.90;;;2.15;;
47365;SDS011;33105;47.964;7.982;2023-07-16T20:49:27;3.53;;;1.98;;
47365;SDS011;33105;47.964;7.982;2023-07-16T20:52:32;5.00;;;1.88;;
47365;SDS011;33105;47.964;7.982;2023-07-16T20:56:24;5.70;;;2.10;;
47365;SDS011;33105;47.964;7.982;2023-07-16T21:00:12;3.83;;;1.75;;
47365;SDS011;33105;47.964;7.982;2023-07-16T21:04:50;3.42;;;1.90;;
47365;SDS011;33105;47.964;7.982;2023-07-16T21:08:06;5.18;;;2.13;;
47365;SDS011;33105;47.964;7.982;2023-07-16T21:11:53;7.07;;;2.20;;
47365;SDS011;33105;47.964;7.982;2023-07-16T21:16:11;4.75;;;2.03;;
47365;SDS011;33105;47.964;7.982;2023-07-16T21:19:32;6.20;;;2.05;;
47365;SDS011;33105;47.964;7.982;2023-07-16T21:22:45;2.15;;;1.65;;
47365;SDS011;33105;47.964;7.982;2023-07-16T21:26:01;3.97;;;1.90;;
47365;SDS011;33105;47.964;7.982;2023-07-16T21:29:03;4.97;;;2.15;;
47365;SDS011;33105;47.964;7.982;2023-07-16T21:32:26;4.07;;;2.15;;